createdAt,value
2019-04-06T00:00:10.114Z,0
2019-04-06T00:01:10.690Z,0
2019-04-06T00:02:11.251Z,0
2019-04-06T00:03:11.821Z,0
2019-04-06T00:04:12.387Z,0
2019-04-06T00:05:12.955Z,0
2019-04-06T00:06:13.560Z,0
2019-04-06T00:07:14.091Z,0
2019-04-06T00:08:14.662Z,0
2019-04-06T00:09:15.234Z,0
2019-04-06T00:10:15.798Z,0
2019-04-06T00:11:16.370Z,0
2019-04-06T00:12:16.974Z,0
2019-04-06T00:13:17.509Z,0
2019-04-06T00:14:18.079Z,0
2019-04-06T00:15:18.647Z,0
2019-04-06T00:16:19.215Z,0
2019-04-06T00:17:19.787Z,0
2019-04-06T00:18:20.348Z,0
2019-04-06T00:19:20.915Z,0
2019-04-06T00:20:21.487Z,0
2019-04-06T00:21:22.057Z,0
2019-04-06T00:22:22.660Z,0
2019-04-06T00:23:23.204Z,0
2019-04-06T00:24:23.774Z,0
2019-04-06T00:25:24.344Z,0
2019-04-06T00:26:24.913Z,0
2019-04-06T00:27:25.485Z,0
2019-04-06T00:28:26.055Z,0
2019-04-06T00:29:26.623Z,0
2019-04-06T00:30:27.205Z,0
2019-04-06T00:31:27.840Z,0
2019-04-06T00:32:28.364Z,0
2019-04-06T00:33:28.935Z,0
2019-04-06T00:34:29.504Z,0
2019-04-06T00:35:30.144Z,0
2019-04-06T00:36:30.666Z,0
2019-04-06T00:37:31.236Z,0
2019-04-06T00:38:33.742Z,0
2019-04-06T00:39:33.383Z,0
2019-04-06T00:40:33.949Z,0
2019-04-06T00:41:34.528Z,0
2019-04-06T00:42:35.097Z,0
2019-04-06T00:43:35.666Z,0
2019-04-06T00:44:36.248Z,0
2019-04-06T00:45:36.815Z,0
2019-04-06T00:46:37.385Z,0
2019-04-06T00:47:37.954Z,0
2019-04-06T00:48:38.524Z,0
2019-04-06T00:49:39.098Z,0
2019-04-06T00:50:39.679Z,0
2019-04-06T00:51:40.249Z,0
2019-04-06T00:52:40.833Z,0
2019-04-06T00:53:41.398Z,0
2019-04-06T00:54:41.969Z,0
2019-04-06T00:55:42.571Z,0
2019-04-06T00:56:43.104Z,0
2019-04-06T00:57:43.673Z,0
2019-04-06T00:58:44.262Z,0
2019-04-06T00:59:44.811Z,0
2019-04-06T01:00:45.379Z,0
2019-04-06T01:01:45.948Z,0
2019-04-06T01:02:46.514Z,0
2019-04-06T01:03:47.082Z,0
2019-04-06T01:04:47.663Z,0
2019-04-06T01:05:48.232Z,0
2019-04-06T01:06:48.839Z,0
2019-04-06T01:07:49.371Z,0
2019-04-06T01:08:49.954Z,0
2019-04-06T01:09:50.524Z,0
2019-04-06T01:10:51.089Z,0
2019-04-06T01:11:51.660Z,0
2019-04-06T01:12:52.259Z,0
2019-04-06T01:13:52.797Z,0
2019-04-06T01:14:53.379Z,0
2019-04-06T01:15:53.972Z,0
2019-04-06T01:16:54.512Z,0
2019-04-06T01:17:55.094Z,0
2019-04-06T01:18:55.667Z,0
2019-04-06T01:19:56.234Z,0
2019-04-06T01:20:56.811Z,0
2019-04-06T01:21:57.369Z,0
2019-04-06T01:22:57.951Z,0
2019-04-06T01:23:58.531Z,0
2019-04-06T01:24:59.103Z,0
2019-04-06T01:26:06.956Z,0
2019-04-06T01:27:00.249Z,0
2019-04-06T01:28:00.818Z,0
2019-04-06T01:29:01.397Z,0
2019-04-06T01:30:01.967Z,0
2019-04-06T01:31:02.547Z,0
2019-04-06T01:32:03.118Z,0
2019-04-06T01:33:03.722Z,0
2019-04-06T01:34:04.254Z,0
2019-04-06T01:35:04.824Z,0
2019-04-06T01:36:05.394Z,0
2019-04-06T01:37:05.971Z,0
2019-04-06T01:38:06.539Z,0
2019-04-06T01:39:07.112Z,0
2019-04-06T01:40:07.675Z,0
2019-04-06T01:41:08.242Z,0
2019-04-06T01:42:08.812Z,0
2019-04-06T01:43:09.382Z,0
2019-04-06T01:44:09.947Z,0
2019-04-06T01:45:10.518Z,0
2019-04-06T01:46:11.086Z,0
2019-04-06T01:47:11.656Z,0
2019-04-06T01:48:18.501Z,0
2019-04-06T01:49:19.036Z,0
2019-04-06T01:50:19.607Z,0
2019-04-06T01:51:20.242Z,0
2019-04-06T01:52:20.743Z,0
2019-04-06T01:53:21.312Z,0
2019-04-06T01:54:21.883Z,0
2019-04-06T01:55:22.447Z,0
2019-04-06T01:56:23.016Z,0
2019-04-06T01:57:23.589Z,0
2019-04-06T01:58:24.166Z,0
2019-04-06T01:59:24.746Z,0
2019-04-06T02:00:25.330Z,0
2019-04-06T02:01:25.910Z,0
2019-04-06T02:02:26.467Z,0
2019-04-06T02:03:27.035Z,0
2019-04-06T02:04:27.601Z,0
2019-04-06T02:05:28.169Z,0
2019-04-06T02:06:28.838Z,0
2019-04-06T02:07:29.379Z,0
2019-04-06T02:08:29.904Z,0
2019-04-06T02:09:30.470Z,0
2019-04-06T02:10:31.079Z,0
2019-04-06T02:11:31.608Z,0
2019-04-06T02:12:32.265Z,0
2019-04-06T02:13:32.765Z,0
2019-04-06T02:14:33.350Z,0
2019-04-06T02:15:33.916Z,0
2019-04-06T02:16:34.496Z,0
2019-04-06T02:17:35.063Z,0
2019-04-06T02:18:35.633Z,0
2019-04-06T02:19:36.205Z,0
2019-04-06T02:20:36.774Z,0
2019-04-06T02:21:37.353Z,0
2019-04-06T02:22:38.055Z,0
2019-04-06T02:23:38.549Z,0
2019-04-06T02:24:39.119Z,0
2019-04-06T02:25:39.688Z,0
2019-04-06T02:26:40.259Z,0
2019-04-06T02:27:40.826Z,0
2019-04-06T02:28:41.393Z,0
2019-04-06T02:29:41.964Z,0
2019-04-06T02:30:42.533Z,0
2019-04-06T02:31:43.115Z,0
2019-04-06T02:32:43.696Z,0
2019-04-06T02:33:44.267Z,0
2019-04-06T02:34:44.952Z,0
2019-04-06T02:35:45.447Z,0
2019-04-06T02:36:46.069Z,0
2019-04-06T02:37:46.726Z,0
2019-04-06T02:38:47.404Z,0
2019-04-06T02:39:47.862Z,0
2019-04-06T02:40:48.431Z,0
2019-04-06T02:41:48.999Z,0
2019-04-06T02:42:49.574Z,0
2019-04-06T02:43:50.139Z,0
2019-04-06T02:44:50.707Z,0
2019-04-06T02:45:51.471Z,0
2019-04-06T02:46:52.022Z,0
2019-04-06T02:47:52.592Z,0
2019-04-06T02:48:53.108Z,0
2019-04-06T02:49:53.674Z,0
2019-04-06T02:50:54.243Z,0
2019-04-06T02:51:54.813Z,0
2019-04-06T02:52:55.375Z,0
2019-04-06T02:53:55.947Z,0
2019-04-06T02:54:56.523Z,0
2019-04-06T02:55:57.094Z,0
2019-04-06T02:56:57.659Z,0
2019-04-06T02:57:58.226Z,0
2019-04-06T02:58:58.794Z,0
2019-04-06T02:59:59.365Z,0
2019-04-06T03:00:59.934Z,0
2019-04-06T03:02:00.501Z,0
2019-04-06T03:03:01.068Z,0
2019-04-06T03:04:01.650Z,0
2019-04-06T03:05:02.410Z,0
2019-04-06T03:06:02.910Z,0
2019-04-06T03:07:03.479Z,0
2019-04-06T03:08:04.050Z,0
2019-04-06T03:09:04.630Z,0
2019-04-06T03:10:05.200Z,0
2019-04-06T03:11:05.770Z,0
2019-04-06T03:12:06.342Z,0
2019-04-06T03:13:06.918Z,0
2019-04-06T03:14:07.609Z,0
2019-04-06T03:15:08.116Z,0
2019-04-06T03:16:08.683Z,0
2019-04-06T03:17:09.258Z,0
2019-04-06T03:18:10.051Z,0
2019-04-06T03:19:10.559Z,0
2019-04-06T03:20:11.116Z,0
2019-04-06T03:21:11.732Z,0
2019-04-06T03:22:12.276Z,0
2019-04-06T03:23:12.982Z,0
2019-04-06T03:24:13.423Z,0
2019-04-06T03:25:13.991Z,0
2019-04-06T03:26:14.559Z,0
2019-04-06T03:27:15.345Z,0
2019-04-06T03:28:15.703Z,0
2019-04-06T03:29:16.285Z,0
2019-04-06T03:30:16.872Z,0
2019-04-06T03:31:22.746Z,0
2019-04-06T03:32:18.986Z,0
2019-04-06T03:33:19.560Z,0
2019-04-06T03:34:21.991Z,0
2019-04-06T03:35:21.716Z,0
2019-04-06T03:36:22.450Z,0
2019-04-06T03:37:23.017Z,0
2019-04-06T03:38:23.608Z,0
2019-04-06T03:39:24.151Z,0
2019-04-06T03:40:24.721Z,0
2019-04-06T03:41:25.289Z,0
2019-04-06T03:42:25.858Z,0
2019-04-06T03:43:26.632Z,0
2019-04-06T03:44:27.017Z,0
2019-04-06T03:45:27.590Z,0
2019-04-06T03:46:28.167Z,0
2019-04-06T03:47:28.730Z,0
2019-04-06T03:48:29.299Z,0
2019-04-06T03:49:29.879Z,0
2019-04-06T03:50:30.478Z,0
2019-04-06T03:51:31.030Z,0
2019-04-06T03:52:31.599Z,0
2019-04-06T03:53:32.169Z,0
2019-04-06T03:54:32.736Z,0
2019-04-06T03:55:33.310Z,0
2019-04-06T03:56:33.887Z,0
2019-04-06T03:57:34.471Z,0
2019-04-06T03:58:35.034Z,0
2019-04-06T03:59:35.602Z,0
2019-04-06T04:00:36.170Z,0
2019-04-06T04:01:36.738Z,0
2019-04-06T04:02:37.383Z,0
2019-04-06T04:03:37.943Z,0
2019-04-06T04:04:38.506Z,0
2019-04-06T04:05:39.023Z,0
2019-04-06T04:06:39.585Z,0
2019-04-06T04:07:40.226Z,0
2019-04-06T04:08:40.830Z,0
2019-04-06T04:09:41.331Z,0
2019-04-06T04:10:41.903Z,0
2019-04-06T04:11:42.769Z,0
2019-04-06T04:12:43.289Z,0
2019-04-06T04:13:43.871Z,0
2019-04-06T04:14:44.443Z,0
2019-04-06T04:15:45.009Z,0
2019-04-06T04:16:45.580Z,0
2019-04-06T04:17:46.181Z,0
2019-04-06T04:18:46.822Z,0
2019-04-06T04:19:47.577Z,0
2019-04-06T04:20:47.897Z,0
2019-04-06T04:21:48.469Z,0
2019-04-06T04:22:49.034Z,0
2019-04-06T04:23:49.682Z,0
2019-04-06T04:24:50.184Z,0
2019-04-06T04:25:50.757Z,0
2019-04-06T04:26:51.365Z,0
2019-04-06T04:27:51.913Z,0
2019-04-06T04:28:52.560Z,0
2019-04-06T04:29:53.062Z,0
2019-04-06T04:30:53.652Z,0
2019-04-06T04:31:54.210Z,0
2019-04-06T04:32:54.787Z,0
2019-04-06T04:33:55.356Z,0
2019-04-06T04:34:55.924Z,0
2019-04-06T04:35:56.493Z,0
2019-04-06T04:36:57.071Z,0
2019-04-06T04:37:57.632Z,0
2019-04-06T04:38:58.340Z,0
2019-04-06T04:39:58.864Z,0
2019-04-06T04:40:59.426Z,0
2019-04-06T04:42:00.316Z,0
2019-04-06T04:43:00.583Z,0
2019-04-06T04:44:01.152Z,0
2019-04-06T04:45:01.718Z,0
2019-04-06T04:46:02.285Z,0
2019-04-06T04:47:02.909Z,0
2019-04-06T04:48:03.420Z,0
2019-04-06T04:49:03.989Z,0
2019-04-06T04:50:04.666Z,0
2019-04-06T04:51:05.175Z,0
2019-04-06T04:52:05.745Z,0
2019-04-06T04:53:06.388Z,0
2019-04-06T04:54:07.080Z,4
2019-04-06T04:55:07.465Z,0
2019-04-06T04:56:08.032Z,0
2019-04-06T04:57:08.598Z,4
2019-04-06T04:58:09.167Z,4
2019-04-06T04:59:09.766Z,0
2019-04-06T05:00:10.307Z,4
2019-04-06T05:01:10.887Z,4
2019-04-06T05:02:11.566Z,4
2019-04-06T05:03:12.042Z,4
2019-04-06T05:04:12.610Z,4
2019-04-06T05:05:13.185Z,8
2019-04-06T05:06:13.773Z,8
2019-04-06T05:07:14.339Z,8
2019-04-06T05:08:14.914Z,16
2019-04-06T05:09:15.476Z,12
2019-04-06T05:10:16.048Z,16
2019-04-06T05:11:16.615Z,12
2019-04-06T05:12:17.186Z,16
2019-04-06T05:13:17.758Z,16
2019-04-06T05:14:18.326Z,16
2019-04-06T05:15:19.043Z,16
2019-04-06T05:16:19.542Z,16
2019-04-06T05:17:20.114Z,24
2019-04-06T05:18:20.697Z,24
2019-04-06T05:19:21.278Z,24
2019-04-06T05:20:23.857Z,20
2019-04-06T05:21:23.411Z,20
2019-04-06T05:22:23.994Z,20
2019-04-06T05:23:24.574Z,20
2019-04-06T05:24:25.168Z,20
2019-04-06T05:25:25.707Z,20
2019-04-06T05:26:36.562Z,20
2019-04-06T05:27:26.944Z,20
2019-04-06T05:28:27.441Z,24
2019-04-06T05:29:28.005Z,24
2019-04-06T05:30:28.688Z,24
2019-04-06T05:31:29.299Z,28
2019-04-06T05:32:29.781Z,24
2019-04-06T05:33:30.485Z,28
2019-04-06T05:34:30.991Z,28
2019-04-06T05:35:31.569Z,32
2019-04-06T05:36:32.150Z,36
2019-04-06T05:37:32.719Z,36
2019-04-06T05:38:33.290Z,36
2019-04-06T05:39:33.857Z,36
2019-04-06T05:40:34.428Z,40
2019-04-06T05:41:35.115Z,40
2019-04-06T05:42:35.757Z,44
2019-04-06T05:43:36.306Z,48
2019-04-06T05:44:36.873Z,48
2019-04-06T05:45:37.448Z,48
2019-04-06T05:46:38.011Z,52
2019-04-06T05:47:38.593Z,56
2019-04-06T05:48:39.164Z,52
2019-04-06T05:49:39.732Z,52
2019-04-06T05:50:40.318Z,52
2019-04-06T05:51:40.886Z,48
2019-04-06T05:52:41.458Z,48
2019-04-06T05:53:42.052Z,52
2019-04-06T05:54:42.594Z,52
2019-04-06T05:55:43.160Z,48
2019-04-06T05:56:43.729Z,48
2019-04-06T05:57:44.298Z,48
2019-04-06T05:58:44.883Z,48
2019-04-06T05:59:45.439Z,48
2019-04-06T06:00:46.056Z,52
2019-04-06T06:01:48.565Z,48
2019-04-06T06:02:48.142Z,52
2019-04-06T06:03:48.821Z,60
2019-04-06T06:04:49.310Z,52
2019-04-06T06:05:49.878Z,60
2019-04-06T06:06:50.452Z,60
2019-04-06T06:07:51.206Z,64
2019-04-06T06:08:51.690Z,64
2019-04-06T06:09:52.261Z,68
2019-04-06T06:10:52.830Z,72
2019-04-06T06:11:55.508Z,72
2019-04-06T06:12:54.961Z,72
2019-04-06T06:13:55.648Z,72
2019-04-06T06:14:56.359Z,84
2019-04-06T06:15:56.715Z,88
2019-04-06T06:16:57.288Z,88
2019-04-06T06:17:57.854Z,88
2019-04-06T06:18:58.428Z,92
2019-04-06T06:19:58.994Z,88
2019-04-06T06:20:59.567Z,100
2019-04-06T06:22:00.132Z,96
2019-04-06T06:23:00.704Z,96
2019-04-06T06:24:01.272Z,96
2019-04-06T06:25:01.845Z,92
2019-04-06T06:26:02.536Z,84
2019-04-06T06:27:02.987Z,84
2019-04-06T06:28:13.852Z,80
2019-04-06T06:29:05.121Z,80
2019-04-06T06:30:05.690Z,76
2019-04-06T06:31:06.417Z,80
2019-04-06T06:32:06.924Z,80
2019-04-06T06:33:07.483Z,84
2019-04-06T06:34:08.054Z,84
2019-04-06T06:35:08.696Z,76
2019-04-06T06:36:09.207Z,80
2019-04-06T06:37:09.764Z,84
2019-04-06T06:38:10.532Z,92
2019-04-06T06:39:11.060Z,92
2019-04-06T06:40:11.624Z,84
2019-04-06T06:41:12.190Z,88
2019-04-06T06:42:13.007Z,84
2019-04-06T06:43:13.353Z,88
2019-04-06T06:44:13.924Z,96
2019-04-06T06:45:14.703Z,92
2019-04-06T06:46:15.217Z,100
2019-04-06T06:47:15.790Z,100
2019-04-06T06:48:16.384Z,84
2019-04-06T06:49:16.939Z,84
2019-04-06T06:50:17.605Z,84
2019-04-06T06:51:18.109Z,80
2019-04-06T06:52:18.672Z,84
2019-04-06T06:53:19.241Z,84
2019-04-06T06:54:19.812Z,88
2019-04-06T06:55:20.386Z,100
2019-04-06T06:56:20.965Z,100
2019-04-06T06:57:21.751Z,100
2019-04-06T06:58:25.586Z,108
2019-04-06T06:59:23.695Z,108
2019-04-06T07:00:24.264Z,104
2019-04-06T07:01:24.834Z,100
2019-04-06T07:02:25.404Z,104
2019-04-06T07:03:26.002Z,100
2019-04-06T07:04:26.553Z,104
2019-04-06T07:05:27.130Z,112
2019-04-06T07:06:27.697Z,120
2019-04-06T07:07:28.269Z,120
2019-04-06T07:08:28.841Z,120
2019-04-06T07:09:29.423Z,120
2019-04-06T07:10:29.996Z,116
2019-04-06T07:11:30.565Z,120
2019-04-06T07:12:31.139Z,128
2019-04-06T07:13:31.709Z,140
2019-04-06T07:14:32.278Z,144
2019-04-06T07:15:33.091Z,148
2019-04-06T07:16:33.617Z,144
2019-04-06T07:17:34.187Z,148
2019-04-06T07:18:34.760Z,136
2019-04-06T07:19:35.330Z,144
2019-04-06T07:20:35.938Z,144
2019-04-06T07:21:36.686Z,144
2019-04-06T07:22:37.216Z,144
2019-04-06T07:23:37.789Z,140
2019-04-06T07:24:38.376Z,144
2019-04-06T07:25:38.967Z,140
2019-04-06T07:26:41.169Z,140
2019-04-06T07:27:41.177Z,136
2019-04-06T07:28:41.830Z,140
2019-04-06T07:29:42.426Z,148
2019-04-06T07:30:42.984Z,144
2019-04-06T07:31:43.554Z,144
2019-04-06T07:32:44.124Z,156
2019-04-06T07:33:44.707Z,160
2019-04-06T07:34:45.283Z,168
2019-04-06T07:35:45.870Z,172
2019-04-06T07:36:46.441Z,180
2019-04-06T07:37:47.005Z,192
2019-04-06T07:38:47.579Z,196
2019-04-06T07:39:48.148Z,196
2019-04-06T07:40:48.717Z,192
2019-04-06T07:41:49.408Z,188
2019-04-06T07:42:49.908Z,200
2019-04-06T07:43:50.490Z,216
2019-04-06T07:44:51.073Z,212
2019-04-06T07:45:51.861Z,204
2019-04-06T07:46:52.686Z,200
2019-04-06T07:47:53.201Z,196
2019-04-06T07:48:53.778Z,200
2019-04-06T07:49:54.608Z,196
2019-04-06T07:50:55.112Z,184
2019-04-06T07:51:55.851Z,184
2019-04-06T07:52:56.447Z,188
2019-04-06T07:53:56.951Z,196
2019-04-06T07:54:57.514Z,200
2019-04-06T07:55:58.236Z,200
2019-04-06T07:56:58.765Z,204
2019-04-06T07:57:59.471Z,212
2019-04-06T07:58:59.834Z,212
2019-04-06T08:00:00.408Z,216
2019-04-06T08:01:00.980Z,224
2019-04-06T08:02:01.553Z,224
2019-04-06T08:03:02.124Z,220
2019-04-06T08:04:02.702Z,228
2019-04-06T08:05:03.271Z,244
2019-04-06T08:06:03.842Z,252
2019-04-06T08:07:04.415Z,256
2019-04-06T08:08:04.987Z,252
2019-04-06T08:09:05.619Z,244
2019-04-06T08:10:06.325Z,240
2019-04-06T08:11:06.965Z,240
2019-04-06T08:12:07.712Z,256
2019-04-06T08:13:08.296Z,268
2019-04-06T08:14:08.879Z,268
2019-04-06T08:15:09.450Z,256
2019-04-06T08:16:10.022Z,244
2019-04-06T08:17:10.598Z,240
2019-04-06T08:18:11.221Z,248
2019-04-06T08:19:11.785Z,280
2019-04-06T08:20:12.327Z,280
2019-04-06T08:21:12.900Z,272
2019-04-06T08:22:13.471Z,256
2019-04-06T08:23:14.344Z,252
2019-04-06T08:24:15.123Z,264
2019-04-06T08:25:15.847Z,264
2019-04-06T08:26:16.380Z,280
2019-04-06T08:27:16.975Z,280
2019-04-06T08:28:17.533Z,292
2019-04-06T08:29:18.108Z,352
2019-04-06T08:30:18.681Z,372
2019-04-06T08:31:19.423Z,352
2019-04-06T08:32:19.950Z,332
2019-04-06T08:33:20.534Z,328
2019-04-06T08:34:21.119Z,308
2019-04-06T08:35:26.018Z,304
2019-04-06T08:36:23.257Z,328
2019-04-06T08:37:23.830Z,352
2019-04-06T08:38:24.415Z,376
2019-04-06T08:39:25.830Z,372
2019-04-06T08:40:26.473Z,380
2019-04-06T08:41:27.048Z,388
2019-04-06T08:42:27.621Z,396
2019-04-06T08:43:28.194Z,412
2019-04-06T08:44:28.961Z,432
2019-04-06T08:45:29.730Z,460
2019-04-06T08:46:30.263Z,444
2019-04-06T08:47:30.833Z,432
2019-04-06T08:48:31.469Z,440
2019-04-06T08:49:31.990Z,468
2019-04-06T08:50:32.562Z,488
2019-04-06T08:51:33.135Z,468
2019-04-06T08:52:33.708Z,440
2019-04-06T08:53:34.309Z,436
2019-04-06T08:54:34.901Z,456
2019-04-06T08:55:35.590Z,472
2019-04-06T08:56:36.095Z,492
2019-04-06T08:57:36.881Z,540
2019-04-06T08:58:37.394Z,584
2019-04-06T08:59:38.000Z,612
2019-04-06T09:00:38.541Z,624
2019-04-06T09:01:39.124Z,588
2019-04-06T09:02:39.762Z,576
2019-04-06T09:03:40.400Z,620
2019-04-06T09:04:40.902Z,648
2019-04-06T09:05:41.475Z,600
2019-04-06T09:06:42.049Z,532
2019-04-06T09:07:42.678Z,504
2019-04-06T09:08:43.201Z,504
2019-04-06T09:09:43.773Z,512
2019-04-06T09:10:44.735Z,544
2019-04-06T09:11:45.265Z,544
2019-04-06T09:12:45.837Z,572
2019-04-06T09:13:46.410Z,640
2019-04-06T09:14:46.996Z,608
2019-04-06T09:15:47.581Z,604
2019-04-06T09:16:48.155Z,624
2019-04-06T09:17:48.732Z,596
2019-04-06T09:18:49.651Z,556
2019-04-06T09:19:50.352Z,548
2019-04-06T09:20:51.043Z,516
2019-04-06T09:21:51.508Z,508
2019-04-06T09:22:52.089Z,520
2019-04-06T09:23:52.705Z,532
2019-04-06T09:24:53.225Z,544
2019-04-06T09:25:53.847Z,568
2019-04-06T09:26:54.376Z,568
2019-04-06T09:27:54.960Z,640
2019-04-06T09:28:55.534Z,624
2019-04-06T09:29:56.112Z,624
2019-04-06T09:30:56.683Z,704
2019-04-06T09:31:57.487Z,660
2019-04-06T09:32:57.987Z,664
2019-04-06T09:33:58.560Z,672
2019-04-06T09:34:59.353Z,704
2019-04-06T09:36:02.259Z,712
2019-04-06T09:37:00.711Z,740
2019-04-06T09:38:01.214Z,724
2019-04-06T09:39:01.789Z,776
2019-04-06T09:40:02.482Z,684
2019-04-06T09:41:03.036Z,740
2019-04-06T09:42:03.670Z,692
2019-04-06T09:43:04.407Z,664
2019-04-06T09:44:04.759Z,660
2019-04-06T09:45:05.325Z,708
2019-04-06T09:46:05.900Z,772
2019-04-06T09:47:06.476Z,860
2019-04-06T09:48:07.048Z,884
2019-04-06T09:49:07.624Z,832
2019-04-06T09:50:08.198Z,852
2019-04-06T09:51:08.772Z,856
2019-04-06T09:52:09.347Z,876
2019-04-06T09:53:09.921Z,868
2019-04-06T09:54:10.498Z,860
2019-04-06T09:55:11.072Z,852
2019-04-06T09:56:11.889Z,792
2019-04-06T09:57:12.454Z,740
2019-04-06T09:58:13.247Z,712
2019-04-06T09:59:13.748Z,700
2019-04-06T10:00:14.322Z,668
2019-04-06T10:01:14.899Z,676
2019-04-06T10:02:15.688Z,692
2019-04-06T10:03:16.377Z,692
2019-04-06T10:04:16.870Z,628
2019-04-06T10:05:17.444Z,516
2019-04-06T10:06:18.037Z,520
2019-04-06T10:07:18.606Z,476
2019-04-06T10:08:19.182Z,452
2019-04-06T10:09:19.758Z,452
2019-04-06T10:10:20.500Z,476
2019-04-06T10:11:21.262Z,504
2019-04-06T10:12:21.765Z,520
2019-04-06T10:13:22.335Z,556
2019-04-06T10:14:22.986Z,696
2019-04-06T10:15:23.546Z,728
2019-04-06T10:16:24.080Z,744
2019-04-06T10:17:24.874Z,772
2019-04-06T10:18:25.550Z,800
2019-04-06T10:19:26.289Z,804
2019-04-06T10:20:26.863Z,864
2019-04-06T10:21:27.571Z,900
2019-04-06T10:22:28.079Z,896
2019-04-06T10:23:28.664Z,892
2019-04-06T10:24:29.533Z,868
2019-04-06T10:25:30.115Z,832
2019-04-06T10:26:30.995Z,800
2019-04-06T10:27:31.684Z,736
2019-04-06T10:28:32.105Z,732
2019-04-06T10:29:32.973Z,600
2019-04-06T10:30:33.808Z,712
2019-04-06T10:31:34.067Z,696
2019-04-06T10:32:35.148Z,716
2019-04-06T10:33:35.676Z,608
2019-04-06T10:34:36.253Z,584
2019-04-06T10:35:36.829Z,588
2019-04-06T10:36:37.404Z,656
2019-04-06T10:37:38.142Z,652
2019-04-06T10:38:38.689Z,652
2019-04-06T10:39:39.219Z,672
2019-04-06T10:40:39.794Z,680
2019-04-06T10:41:40.371Z,696
2019-04-06T10:42:40.949Z,696
2019-04-06T10:43:41.524Z,720
2019-04-06T10:44:42.102Z,780
2019-04-06T10:45:42.691Z,764
2019-04-06T10:46:43.289Z,780
2019-04-06T10:47:43.863Z,864
2019-04-06T10:48:44.440Z,776
2019-04-06T10:49:45.025Z,752
2019-04-06T10:50:45.602Z,876
2019-04-06T10:51:46.176Z,912
2019-04-06T10:52:46.762Z,892
2019-04-06T10:53:47.340Z,872
2019-04-06T10:54:47.974Z,820
2019-04-06T10:55:48.489Z,748
2019-04-06T10:56:49.068Z,692
2019-04-06T10:57:49.640Z,568
2019-04-06T10:58:50.217Z,512
2019-04-06T11:00:01.155Z,520
2019-04-06T11:00:51.374Z,552
2019-04-06T11:01:51.947Z,596
2019-04-06T11:02:52.523Z,576
2019-04-06T11:03:53.107Z,540
2019-04-06T11:04:53.815Z,520
2019-04-06T11:05:54.593Z,496
2019-04-06T11:06:55.396Z,516
2019-04-06T11:07:55.914Z,532
2019-04-06T11:08:56.458Z,524
2019-04-06T11:09:57.032Z,520
2019-04-06T11:10:57.903Z,528
2019-04-06T11:11:58.724Z,560
2019-04-06T11:12:59.250Z,572
2019-04-06T11:13:59.826Z,588
2019-04-06T11:15:00.401Z,608
2019-04-06T11:16:01.218Z,636
2019-04-06T11:17:01.563Z,656
2019-04-06T11:18:02.349Z,736
2019-04-06T11:19:02.864Z,684
2019-04-06T11:20:03.437Z,692
2019-04-06T11:21:04.026Z,712
2019-04-06T11:22:04.603Z,676
2019-04-06T11:23:05.418Z,660
2019-04-06T11:24:06.216Z,648
2019-04-06T11:25:06.729Z,648
2019-04-06T11:26:07.318Z,788
2019-04-06T11:27:08.174Z,808
2019-04-06T11:28:08.496Z,924
2019-04-06T11:29:09.074Z,876
2019-04-06T11:30:13.978Z,864
2019-04-06T11:31:10.235Z,828
2019-04-06T11:32:11.063Z,792
2019-04-06T11:33:11.708Z,776
2019-04-06T11:34:12.499Z,728
2019-04-06T11:35:13.018Z,668
2019-04-06T11:36:13.592Z,652
2019-04-06T11:37:14.172Z,708
2019-04-06T11:38:14.744Z,724
2019-04-06T11:39:15.322Z,672
2019-04-06T11:40:15.981Z,624
2019-04-06T11:41:16.528Z,600
2019-04-06T11:42:17.265Z,604
2019-04-06T11:43:17.852Z,612
2019-04-06T11:44:18.648Z,612
2019-04-06T11:45:19.019Z,616
2019-04-06T11:46:19.670Z,648
2019-04-06T11:47:20.462Z,664
2019-04-06T11:48:20.980Z,632
2019-04-06T11:49:21.556Z,612
2019-04-06T11:50:22.133Z,608
2019-04-06T11:51:22.952Z,620
2019-04-06T11:52:23.486Z,760
2019-04-06T11:53:24.056Z,592
2019-04-06T11:54:24.634Z,564
2019-04-06T11:55:25.212Z,540
2019-04-06T11:56:25.786Z,612
2019-04-06T11:57:26.363Z,676
2019-04-06T11:58:27.074Z,728
2019-04-06T11:59:27.607Z,716
2019-04-06T12:00:28.216Z,728
2019-04-06T12:01:28.885Z,740
2019-04-06T12:02:29.724Z,760
2019-04-06T12:03:29.990Z,728
2019-04-06T12:04:30.567Z,680
2019-04-06T12:05:31.143Z,712
2019-04-06T12:06:31.720Z,744
2019-04-06T12:07:32.299Z,700
2019-04-06T12:08:32.888Z,660
2019-04-06T12:09:33.684Z,704
2019-04-06T12:10:34.353Z,736
2019-04-06T12:11:35.023Z,720
2019-04-06T12:12:35.527Z,692
2019-04-06T12:13:36.104Z,664
2019-04-06T12:14:36.680Z,696
2019-04-06T12:15:37.268Z,732
2019-04-06T12:16:37.905Z,756
2019-04-06T12:17:38.458Z,776
2019-04-06T12:18:39.001Z,780
2019-04-06T12:19:39.576Z,796
2019-04-06T12:20:40.537Z,752
2019-04-06T12:21:41.058Z,740
2019-04-06T12:22:41.641Z,792
2019-04-06T12:23:42.218Z,852
2019-04-06T12:24:42.789Z,820
2019-04-06T12:25:43.524Z,736
2019-04-06T12:26:44.178Z,740
2019-04-06T12:27:44.680Z,740
2019-04-06T12:28:45.427Z,660
2019-04-06T12:29:46.059Z,660
2019-04-06T12:30:46.854Z,624
2019-04-06T12:31:47.373Z,620
2019-04-06T12:32:47.992Z,612
2019-04-06T12:33:48.526Z,624
2019-04-06T12:34:49.174Z,604
2019-04-06T12:35:49.874Z,584
2019-04-06T12:36:50.379Z,544
2019-04-06T12:37:50.956Z,580
2019-04-06T12:38:51.530Z,608
2019-04-06T12:39:54.163Z,612
2019-04-06T12:40:52.727Z,608
2019-04-06T12:41:53.271Z,592
2019-04-06T12:42:53.846Z,628
2019-04-06T12:43:54.426Z,664
2019-04-06T12:44:55.004Z,652
2019-04-06T12:45:55.578Z,648
2019-04-06T12:46:56.432Z,624
2019-04-06T12:47:56.939Z,652
2019-04-06T12:48:57.771Z,636
2019-04-06T12:49:58.305Z,576
2019-04-06T12:50:58.838Z,552
2019-04-06T12:51:59.505Z,580
2019-04-06T12:53:00.201Z,696
2019-04-06T12:54:00.714Z,736
2019-04-06T12:55:01.555Z,768
2019-04-06T12:56:02.310Z,796
2019-04-06T12:57:03.001Z,748
2019-04-06T12:58:03.518Z,680
2019-04-06T12:59:04.165Z,652
2019-04-06T13:00:05.045Z,676
2019-04-06T13:01:05.563Z,716
2019-04-06T13:02:06.181Z,740
2019-04-06T13:03:06.808Z,752
2019-04-06T13:04:07.320Z,688
2019-04-06T13:05:07.908Z,636
2019-04-06T13:06:08.486Z,584
2019-04-06T13:07:09.066Z,592
2019-04-06T13:08:09.641Z,640
2019-04-06T13:09:10.226Z,696
2019-04-06T13:10:10.815Z,856
2019-04-06T13:11:11.388Z,880
2019-04-06T13:12:12.624Z,840
2019-04-06T13:13:13.392Z,708
2019-04-06T13:14:13.905Z,632
2019-04-06T13:15:14.481Z,644
2019-04-06T13:16:15.702Z,660
2019-04-06T13:17:16.549Z,712
2019-04-06T13:18:17.205Z,772
2019-04-06T13:19:17.711Z,864
2019-04-06T13:20:18.467Z,1024
2019-04-06T13:21:19.555Z,1076
2019-04-06T13:22:20.372Z,1048
2019-04-06T13:23:20.871Z,916
2019-04-06T13:24:21.463Z,784
2019-04-06T13:25:22.110Z,696
2019-04-06T13:26:22.614Z,668
2019-04-06T13:27:23.194Z,656
2019-04-06T13:28:23.769Z,668
2019-04-06T13:29:24.544Z,680
2019-04-06T13:30:25.178Z,828
2019-04-06T13:31:25.702Z,936
2019-04-06T13:32:26.260Z,792
2019-04-06T13:33:26.835Z,772
2019-04-06T13:34:27.484Z,924
2019-04-06T13:35:27.992Z,860
2019-04-06T13:36:28.568Z,916
2019-04-06T13:37:29.146Z,1044
2019-04-06T13:38:29.901Z,1044
2019-04-06T13:39:30.404Z,884
2019-04-06T13:40:30.991Z,948
2019-04-06T13:41:31.572Z,936
2019-04-06T13:42:32.161Z,864
2019-04-06T13:43:32.739Z,756
2019-04-06T13:44:33.313Z,692
2019-04-06T13:45:33.891Z,688
2019-04-06T13:46:34.466Z,672
2019-04-06T13:47:35.045Z,644
2019-04-06T13:48:35.703Z,656
2019-04-06T13:49:36.384Z,744
2019-04-06T13:50:37.537Z,788
2019-04-06T13:51:38.277Z,796
2019-04-06T13:52:39.071Z,804
2019-04-06T13:53:40.031Z,804
2019-04-06T13:54:40.536Z,984
2019-04-06T13:55:41.112Z,1044
2019-04-06T13:56:41.689Z,1100
2019-04-06T13:57:42.266Z,1068
2019-04-06T13:58:42.845Z,1116
2019-04-06T13:59:43.421Z,936
2019-04-06T14:00:44.054Z,900
2019-04-06T14:01:44.864Z,1004
2019-04-06T14:02:45.577Z,1020
2019-04-06T14:03:46.085Z,1136
2019-04-06T14:04:46.673Z,1060
2019-04-06T14:05:47.254Z,1024
2019-04-06T14:06:48.090Z,1016
2019-04-06T14:07:48.588Z,972
2019-04-06T14:08:49.167Z,980
2019-04-06T14:09:50.195Z,1108
2019-04-06T14:10:50.747Z,1144
2019-04-06T14:11:51.329Z,1180
2019-04-06T14:12:51.904Z,1252
2019-04-06T14:13:52.482Z,1292
2019-04-06T14:14:53.061Z,1260
2019-04-06T14:15:53.636Z,1164
2019-04-06T14:16:54.216Z,1256
2019-04-06T14:17:54.795Z,1280